sensor_id;sensor_type;location;lat;lon;timestamp;P1;durP1;ratioP1;P2;durP2;ratioP2
20318;SDS011;10317;47.254;11.314;2023-04-03T00:02:17;1.63;;;1.10;;
20318;SDS011;10317;47.254;11.314;2023-04-03T00:04:42;1.02;;;1.02;;
20318;SDS011;10317;47.254;11.314;2023-04-03T00:07:08;1.30;;;1.30;;
20318;SDS011;10317;47.254;11.314;2023-04-03T00:09:34;1.38;;;1.30;;
20318;SDS011;10317;47.254;11.314;2023-04-03T00:12:00;0.95;;;0.95;;
20318;SDS011;10317;47.254;11.314;2023-04-03T00:14:25;1.10;;;1.10;;
20318;SDS011;10317;47.254;11.314;2023-04-03T00:16:52;1.10;;;1.10;;
20318;SDS011;10317;47.254;11.314;2023-04-03T00:19:18;1.10;;;1.10;;
20318;SDS011;10317;47.254;11.314;2023-04-03T00:21:43;1.50;;;1.40;;
20318;SDS011;10317;47.254;11.314;2023-04-03T00:24:09;1.13;;;1.13;;
20318;SDS011;10317;47.254;11.314;2023-04-03T00:26:35;1.05;;;1.05;;
20318;SDS011;10317;47.254;11.314;2023-04-03T00:29:00;1.17;;;1.17;;
20318;SDS011;10317;47.254;11.314;2023-04-03T00:31:26;1.00;;;1.00;;
20318;SDS011;10317;47.254;11.314;2023-04-03T00:33:52;1.00;;;1.00;;
20318;SDS011;10317;47.254;11.314;2023-04-03T00:36:17;2.60;;;1.30;;
20318;SDS011;10317;47.254;11.314;2023-04-03T00:38:43;0.95;;;0.95;;
20318;SDS011;10317;47.254;11.314;2023-04-03T00:41:09;1.30;;;1.30;;
20318;SDS011;10317;47.254;11.314;2023-04-03T00:43:34;1.25;;;1.25;;
20318;SDS011;10317;47.254;11.314;2023-04-03T00:46:00;0.90;;;0.90;;
20318;SDS011;10317;47.254;11.314;2023-04-03T00:48:31;1.38;;;1.38;;
20318;SDS011;10317;47.254;11.314;2023-04-03T00:51:00;0.95;;;0.95;;
20318;SDS011;10317;47.254;11.314;2023-04-03T00:53:29;1.17;;;1.17;;
20318;SDS011;10317;47.254;11.314;2023-04-03T00:56:00;1.30;;;1.30;;
20318;SDS011;10317;47.254;11.314;2023-04-03T00:58:33;1.20;;;1.20;;
20318;SDS011;10317;47.254;11.314;2023-04-03T01:01:15;1.30;;;1.30;;
20318;SDS011;10317;47.254;11.314;2023-04-03T01:03:43;1.20;;;1.20;;
20318;SDS011;10317;47.254;11.314;2023-04-03T01:06:09;1.40;;;1.40;;
20318;SDS011;10317;47.254;11.314;2023-04-03T01:08:45;1.10;;;1.10;;
20318;SDS011;10317;47.254;11.314;2023-04-03T01:11:14;1.30;;;1.30;;
20318;SDS011;10317;47.254;11.314;2023-04-03T01:13:40;1.48;;;1.45;;
20318;SDS011;10317;47.254;11.314;2023-04-03T01:16:06;1.75;;;1.75;;
20318;SDS011;10317;47.254;11.314;2023-04-03T01:18:33;1.52;;;1.52;;
20318;SDS011;10317;47.254;11.314;2023-04-03T01:26:20;1.50;;;1.40;;
20318;SDS011;10317;47.254;11.314;2023-04-03T01:28:46;1.38;;;1.27;;
20318;SDS011;10317;47.254;11.314;2023-04-03T01:33:58;1.27;;;1.27;;
20318;SDS011;10317;47.254;11.314;2023-04-03T01:36:25;2.45;;;1.45;;
20318;SDS011;10317;47.254;11.314;2023-04-03T01:38:53;1.75;;;1.50;;
20318;SDS011;10317;47.254;11.314;2023-04-03T01:41:20;1.42;;;1.30;;
20318;SDS011;10317;47.254;11.314;2023-04-03T01:43:46;1.38;;;1.38;;
20318;SDS011;10317;47.254;11.314;2023-04-03T01:46:13;4.30;;;1.77;;
20318;SDS011;10317;47.254;11.314;2023-04-03T01:48:40;1.42;;;1.40;;
20318;SDS011;10317;47.254;11.314;2023-04-03T01:51:05;1.60;;;1.50;;
20318;SDS011;10317;47.254;11.314;2023-04-03T01:53:31;1.30;;;1.30;;
20318;SDS011;10317;47.254;11.314;2023-04-03T01:55:57;1.55;;;1.45;;
20318;SDS011;10317;47.254;11.314;2023-04-03T01:58:22;1.50;;;1.45;;
20318;SDS011;10317;47.254;11.314;2023-04-03T02:00:48;1.50;;;1.50;;
20318;SDS011;10317;47.254;11.314;2023-04-03T02:03:14;1.90;;;1.83;;
20318;SDS011;10317;47.254;11.314;2023-04-03T02:05:40;1.50;;;1.50;;
20318;SDS011;10317;47.254;11.314;2023-04-03T02:08:05;1.73;;;1.63;;
20318;SDS011;10317;47.254;11.314;2023-04-03T02:10:31;1.25;;;1.25;;
20318;SDS011;10317;47.254;11.314;2023-04-03T02:12:57;2.00;;;1.90;;
20318;SDS011;10317;47.254;11.314;2023-04-03T02:15:22;1.88;;;1.77;;
20318;SDS011;10317;47.254;11.314;2023-04-03T02:17:48;1.88;;;1.88;;
20318;SDS011;10317;47.254;11.314;2023-04-03T02:20:14;1.80;;;1.70;;
20318;SDS011;10317;47.254;11.314;2023-04-03T02:22:40;1.90;;;1.85;;
20318;SDS011;10317;47.254;11.314;2023-04-03T02:25:06;1.52;;;1.45;;
20318;SDS011;10317;47.254;11.314;2023-04-03T02:27:32;1.58;;;1.58;;
20318;SDS011;10317;47.254;11.314;2023-04-03T02:29:57;1.60;;;1.60;;
20318;SDS011;10317;47.254;11.314;2023-04-03T02:32:23;1.90;;;1.80;;
20318;SDS011;10317;47.254;11.314;2023-04-03T02:34:49;1.85;;;1.85;;
20318;SDS011;10317;47.254;11.314;2023-04-03T02:37:15;2.58;;;1.70;;
20318;SDS011;10317;47.254;11.314;2023-04-03T02:39:40;2.05;;;1.95;;
20318;SDS011;10317;47.254;11.314;2023-04-03T02:42:06;1.88;;;1.77;;
20318;SDS011;10317;47.254;11.314;2023-04-03T02:44:32;2.00;;;1.90;;
20318;SDS011;10317;47.254;11.314;2023-04-03T02:46:58;1.75;;;1.65;;
20318;SDS011;10317;47.254;11.314;2023-04-03T02:49:23;2.45;;;1.80;;
20318;SDS011;10317;47.254;11.314;2023-04-03T02:51:49;1.35;;;1.35;;
20318;SDS011;10317;47.254;11.314;2023-04-03T02:54:16;2.00;;;1.90;;
20318;SDS011;10317;47.254;11.314;2023-04-03T02:56:41;1.90;;;1.80;;
20318;SDS011;10317;47.254;11.314;2023-04-03T02:59:07;1.90;;;1.80;;
20318;SDS011;10317;47.254;11.314;2023-04-03T03:01:33;1.95;;;1.85;;
20318;SDS011;10317;47.254;11.314;2023-04-03T03:03:59;1.73;;;1.73;;
20318;SDS011;10317;47.254;11.314;2023-04-03T03:06:25;1.50;;;1.50;;
20318;SDS011;10317;47.254;11.314;2023-04-03T03:08:51;1.88;;;1.77;;
20318;SDS011;10317;47.254;11.314;2023-04-03T03:11:17;1.85;;;1.83;;
20318;SDS011;10317;47.254;11.314;2023-04-03T03:13:43;2.15;;;2.05;;
20318;SDS011;10317;47.254;11.314;2023-04-03T03:16:09;1.42;;;1.42;;
20318;SDS011;10317;47.254;11.314;2023-04-03T03:18:35;2.10;;;1.90;;
20318;SDS011;10317;47.254;11.314;2023-04-03T03:21:01;1.70;;;1.60;;
20318;SDS011;10317;47.254;11.314;2023-04-03T03:23:28;1.95;;;1.85;;
20318;SDS011;10317;47.254;11.314;2023-04-03T03:25:56;2.10;;;2.00;;
20318;SDS011;10317;47.254;11.314;2023-04-03T03:28:23;2.42;;;2.25;;
20318;SDS011;10317;47.254;11.314;2023-04-03T03:30:48;1.90;;;1.80;;
20318;SDS011;10317;47.254;11.314;2023-04-03T03:33:14;2.15;;;2.05;;
20318;SDS011;10317;47.254;11.314;2023-04-03T03:35:40;1.75;;;1.70;;
20318;SDS011;10317;47.254;11.314;2023-04-03T03:38:06;2.13;;;2.03;;
20318;SDS011;10317;47.254;11.314;2023-04-03T03:40:32;2.25;;;2.15;;
20318;SDS011;10317;47.254;11.314;2023-04-03T03:42:58;2.25;;;2.15;;
20318;SDS011;10317;47.254;11.314;2023-04-03T03:45:23;2.25;;;2.10;;
20318;SDS011;10317;47.254;11.314;2023-04-03T03:47:49;2.65;;;2.45;;
20318;SDS011;10317;47.254;11.314;2023-04-03T03:50:15;2.33;;;2.22;;
20318;SDS011;10317;47.254;11.314;2023-04-03T03:52:41;2.13;;;1.92;;
20318;SDS011;10317;47.254;11.314;2023-04-03T03:55:08;3.00;;;2.80;;
20318;SDS011;10317;47.254;11.314;2023-04-03T03:57:33;2.33;;;2.22;;
20318;SDS011;10317;47.254;11.314;2023-04-03T03:59:59;2.47;;;2.38;;
20318;SDS011;10317;47.254;11.314;2023-04-03T04:02:25;1.98;;;1.98;;
20318;SDS011;10317;47.254;11.314;2023-04-03T04:04:50;2.65;;;2.55;;
20318;SDS011;10317;47.254;11.314;2023-04-03T04:07:16;2.67;;;2.58;;
20318;SDS011;10317;47.254;11.314;2023-04-03T04:09:42;3.30;;;2.80;;
20318;SDS011;10317;47.254;11.314;2023-04-03T04:12:07;2.15;;;2.08;;
20318;SDS011;10317;47.254;11.314;2023-04-03T04:14:33;2.72;;;2.60;;
20318;SDS011;10317;47.254;11.314;2023-04-03T04:16:59;2.88;;;2.78;;
20318;SDS011;10317;47.254;11.314;2023-04-03T04:19:27;3.10;;;2.80;;
20318;SDS011;10317;47.254;11.314;2023-04-03T04:21:53;3.78;;;3.47;;
20318;SDS011;10317;47.254;11.314;2023-04-03T04:24:18;3.30;;;3.10;;
20318;SDS011;10317;47.254;11.314;2023-04-03T04:26:44;3.40;;;3.10;;
20318;SDS011;10317;47.254;11.314;2023-04-03T04:29:10;3.80;;;3.42;;
20318;SDS011;10317;47.254;11.314;2023-04-03T04:31:36;3.60;;;3.30;;
20318;SDS011;10317;47.254;11.314;2023-04-03T04:34:01;4.13;;;3.70;;
20318;SDS011;10317;47.254;11.314;2023-04-03T04:36:27;4.20;;;3.90;;
20318;SDS011;10317;47.254;11.314;2023-04-03T04:38:53;4.40;;;4.03;;
20318;SDS011;10317;47.254;11.314;2023-04-03T04:41:21;4.35;;;4.00;;
20318;SDS011;10317;47.254;11.314;2023-04-03T04:43:48;4.43;;;4.13;;
20318;SDS011;10317;47.254;11.314;2023-04-03T04:46:14;5.70;;;4.15;;
20318;SDS011;10317;47.254;11.314;2023-04-03T04:48:40;4.90;;;3.95;;
20318;SDS011;10317;47.254;11.314;2023-04-03T04:51:06;4.97;;;4.32;;
20318;SDS011;10317;47.254;11.314;2023-04-03T04:53:32;5.25;;;4.07;;
20318;SDS011;10317;47.254;11.314;2023-04-03T04:55:58;4.93;;;4.53;;
20318;SDS011;10317;47.254;11.314;2023-04-03T04:58:23;5.05;;;4.55;;
20318;SDS011;10317;47.254;11.314;2023-04-03T05:00:57;7.15;;;4.30;;
20318;SDS011;10317;47.254;11.314;2023-04-03T05:03:27;7.63;;;4.68;;
20318;SDS011;10317;47.254;11.314;2023-04-03T05:05:53;5.78;;;5.28;;
20318;SDS011;10317;47.254;11.314;2023-04-03T05:08:18;6.00;;;5.22;;
20318;SDS011;10317;47.254;11.314;2023-04-03T05:10:44;5.55;;;5.05;;
20318;SDS011;10317;47.254;11.314;2023-04-03T05:13:11;9.98;;;6.10;;
20318;SDS011;10317;47.254;11.314;2023-04-03T05:15:36;6.78;;;4.90;;
20318;SDS011;10317;47.254;11.314;2023-04-03T05:18:02;9.57;;;5.75;;
20318;SDS011;10317;47.254;11.314;2023-04-03T05:20:28;5.90;;;5.30;;
20318;SDS011;10317;47.254;11.314;2023-04-03T05:22:53;8.02;;;5.53;;
20318;SDS011;10317;47.254;11.314;2023-04-03T05:25:19;6.75;;;5.60;;
20318;SDS011;10317;47.254;11.314;2023-04-03T05:27:45;8.02;;;6.70;;
20318;SDS011;10317;47.254;11.314;2023-04-03T05:30:11;5.97;;;5.38;;
20318;SDS011;10317;47.254;11.314;2023-04-03T05:32:37;6.97;;;6.28;;
20318;SDS011;10317;47.254;11.314;2023-04-03T05:35:03;6.13;;;5.53;;
20318;SDS011;10317;47.254;11.314;2023-04-03T05:37:29;7.45;;;6.20;;
20318;SDS011;10317;47.254;11.314;2023-04-03T05:39:55;6.05;;;5.45;;
20318;SDS011;10317;47.254;11.314;2023-04-03T05:42:20;10.98;;;6.85;;
20318;SDS011;10317;47.254;11.314;2023-04-03T05:44:46;8.40;;;6.82;;
20318;SDS011;10317;47.254;11.314;2023-04-03T05:47:12;10.18;;;7.13;;
20318;SDS011;10317;47.254;11.314;2023-04-03T05:49:38;11.50;;;7.55;;
20318;SDS011;10317;47.254;11.314;2023-04-03T05:52:06;10.32;;;7.75;;
20318;SDS011;10317;47.254;11.314;2023-04-03T05:54:44;9.38;;;7.25;;
20318;SDS011;10317;47.254;11.314;2023-04-03T05:57:11;9.02;;;6.55;;
20318;SDS011;10317;47.254;11.314;2023-04-03T05:59:37;9.40;;;7.32;;
20318;SDS011;10317;47.254;11.314;2023-04-03T06:02:03;6.25;;;5.65;;
20318;SDS011;10317;47.254;11.314;2023-04-03T06:04:28;7.07;;;6.13;;
20318;SDS011;10317;47.254;11.314;2023-04-03T06:06:55;8.98;;;6.88;;
20318;SDS011;10317;47.254;11.314;2023-04-03T06:09:23;7.85;;;6.50;;
20318;SDS011;10317;47.254;11.314;2023-04-03T06:11:51;9.07;;;7.22;;
20318;SDS011;10317;47.254;11.314;2023-04-03T06:14:17;8.55;;;6.82;;
20318;SDS011;10317;47.254;11.314;2023-04-03T06:16:43;12.93;;;7.32;;
20318;SDS011;10317;47.254;11.314;2023-04-03T06:19:09;8.77;;;7.28;;
20318;SDS011;10317;47.254;11.314;2023-04-03T06:21:36;12.40;;;8.57;;
20318;SDS011;10317;47.254;11.314;2023-04-03T06:24:02;10.63;;;7.85;;
20318;SDS011;10317;47.254;11.314;2023-04-03T06:26:29;13.90;;;7.85;;
20318;SDS011;10317;47.254;11.314;2023-04-03T06:28:55;11.43;;;8.38;;
20318;SDS011;10317;47.254;11.314;2023-04-03T06:31:21;8.93;;;7.50;;
20318;SDS011;10317;47.254;11.314;2023-04-03T06:33:47;11.70;;;8.20;;
20318;SDS011;10317;47.254;11.314;2023-04-03T06:36:13;10.73;;;7.90;;
20318;SDS011;10317;47.254;11.314;2023-04-03T06:38:38;9.82;;;8.13;;
20318;SDS011;10317;47.254;11.314;2023-04-03T06:41:04;8.82;;;7.53;;
20318;SDS011;10317;47.254;11.314;2023-04-03T06:43:30;11.18;;;8.52;;
20318;SDS011;10317;47.254;11.314;2023-04-03T06:45:56;10.25;;;8.05;;
20318;SDS011;10317;47.254;11.314;2023-04-03T06:48:22;10.85;;;8.32;;
20318;SDS011;10317;47.254;11.314;2023-04-03T06:50:48;9.73;;;7.68;;
20318;SDS011;10317;47.254;11.314;2023-04-03T06:53:14;12.45;;;8.95;;
20318;SDS011;10317;47.254;11.314;2023-04-03T06:55:39;11.88;;;8.25;;
20318;SDS011;10317;47.254;11.314;2023-04-03T06:58:06;10.05;;;8.10;;
20318;SDS011;10317;47.254;11.314;2023-04-03T07:00:32;12.35;;;8.63;;
20318;SDS011;10317;47.254;11.314;2023-04-03T07:02:58;10.02;;;7.95;;
20318;SDS011;10317;47.254;11.314;2023-04-03T07:05:24;10.77;;;8.38;;
20318;SDS011;10317;47.254;11.314;2023-04-03T07:07:51;10.77;;;8.50;;
20318;SDS011;10317;47.254;11.314;2023-04-03T07:10:17;12.13;;;9.80;;
20318;SDS011;10317;47.254;11.314;2023-04-03T07:12:43;13.95;;;9.02;;
20318;SDS011;10317;47.254;11.314;2023-04-03T07:15:09;11.05;;;8.43;;
20318;SDS011;10317;47.254;11.314;2023-04-03T07:17:36;13.88;;;9.60;;
20318;SDS011;10317;47.254;11.314;2023-04-03T07:20:02;13.55;;;9.25;;
20318;SDS011;10317;47.254;11.314;2023-04-03T07:22:28;10.02;;;8.02;;
20318;SDS011;10317;47.254;11.314;2023-04-03T07:24:55;10.88;;;9.10;;
20318;SDS011;10317;47.254;11.314;2023-04-03T07:27:23;12.55;;;9.18;;
20318;SDS011;10317;47.254;11.314;2023-04-03T07:29:50;10.15;;;7.90;;
20318;SDS011;10317;47.254;11.314;2023-04-03T07:32:15;11.77;;;8.90;;
20318;SDS011;10317;47.254;11.314;2023-04-03T07:34:42;11.48;;;8.45;;
20318;SDS011;10317;47.254;11.314;2023-04-03T07:37:08;10.93;;;8.77;;
20318;SDS011;10317;47.254;11.314;2023-04-03T07:39:34;10.68;;;8.27;;
20318;SDS011;10317;47.254;11.314;2023-04-03T07:42:00;9.70;;;7.95;;
20318;SDS011;10317;47.254;11.314;2023-04-03T07:44:27;10.48;;;7.88;;
20318;SDS011;10317;47.254;11.314;2023-04-03T07:46:53;8.95;;;7.93;;
20318;SDS011;10317;47.254;11.314;2023-04-03T07:49:20;10.10;;;8.05;;
20318;SDS011;10317;47.254;11.314;2023-04-03T07:51:48;8.38;;;7.30;;
20318;SDS011;10317;47.254;11.314;2023-04-03T07:54:14;10.07;;;8.63;;
20318;SDS011;10317;47.254;11.314;2023-04-03T07:56:40;8.63;;;7.72;;
20318;SDS011;10317;47.254;11.314;2023-04-03T07:59:07;9.70;;;7.82;;
20318;SDS011;10317;47.254;11.314;2023-04-03T08:01:34;11.15;;;8.25;;
20318;SDS011;10317;47.254;11.314;2023-04-03T08:03:59;11.05;;;7.60;;
20318;SDS011;10317;47.254;11.314;2023-04-03T08:06:26;10.15;;;8.10;;
20318;SDS011;10317;47.254;11.314;2023-04-03T08:08:51;10.48;;;7.95;;
20318;SDS011;10317;47.254;11.314;2023-04-03T08:11:17;10.57;;;8.60;;
20318;SDS011;10317;47.254;11.314;2023-04-03T08:13:44;10.68;;;7.97;;
20318;SDS011;10317;47.254;11.314;2023-04-03T08:16:12;10.57;;;7.75;;
20318;SDS011;10317;47.254;11.314;2023-04-03T08:18:41;9.55;;;7.57;;
20318;SDS011;10317;47.254;11.314;2023-04-03T08:21:10;13.48;;;7.90;;
20318;SDS011;10317;47.254;11.314;2023-04-03T08:23:37;10.43;;;7.95;;
20318;SDS011;10317;47.254;11.314;2023-04-03T08:26:14;12.80;;;7.82;;
20318;SDS011;10317;47.254;11.314;2023-04-03T08:28:41;8.40;;;7.10;;
20318;SDS011;10317;47.254;11.314;2023-04-03T08:31:09;8.45;;;7.55;;
20318;SDS011;10317;47.254;11.314;2023-04-03T08:33:37;11.55;;;7.97;;
20318;SDS011;10317;47.254;11.314;2023-04-03T08:36:04;8.07;;;7.18;;
20318;SDS011;10317;47.254;11.314;2023-04-03T08:38:31;8.68;;;7.10;;
20318;SDS011;10317;47.254;11.314;2023-04-03T08:41:04;9.15;;;7.05;;
20318;SDS011;10317;47.254;11.314;2023-04-03T08:46:39;8.23;;;7.20;;
20318;SDS011;10317;47.254;11.314;2023-04-03T08:49:15;9.20;;;8.13;;
20318;SDS011;10317;47.254;11.314;2023-04-03T08:52:12;10.45;;;6.57;;
20318;SDS011;10317;47.254;11.314;2023-04-03T08:55:42;6.90;;;6.03;;
20318;SDS011;10317;47.254;11.314;2023-04-03T08:58:01;9.30;;;6.75;;
20318;SDS011;10317;47.254;11.314;2023-04-03T09:00:46;7.05;;;6.32;;
20318;SDS011;10317;47.254;11.314;2023-04-03T09:03:22;7.40;;;6.47;;
20318;SDS011;10317;47.254;11.314;2023-04-03T09:05:49;5.93;;;5.32;;
20318;SDS011;10317;47.254;11.314;2023-04-03T09:11:16;6.78;;;5.90;;
20318;SDS011;10317;47.254;11.314;2023-04-03T09:14:02;5.60;;;5.10;;
20318;SDS011;10317;47.254;11.314;2023-04-03T09:16:55;7.45;;;5.03;;
20318;SDS011;10317;47.254;11.314;2023-04-03T09:21:58;6.43;;;5.18;;
20318;SDS011;10317;47.254;11.314;2023-04-03T09:24:34;6.03;;;5.43;;
20318;SDS011;10317;47.254;11.314;2023-04-03T09:27:04;6.70;;;6.10;;
20318;SDS011;10317;47.254;11.314;2023-04-03T09:29:31;6.05;;;5.45;;
20318;SDS011;10317;47.254;11.314;2023-04-03T09:32:00;6.90;;;5.78;;
20318;SDS011;10317;47.254;11.314;2023-04-03T09:34:37;7.10;;;6.18;;
20318;SDS011;10317;47.254;11.314;2023-04-03T09:37:06;6.93;;;6.07;;
20318;SDS011;10317;47.254;11.314;2023-04-03T09:39:48;6.38;;;5.30;;
20318;SDS011;10317;47.254;11.314;2023-04-03T09:42:20;6.28;;;5.68;;
20318;SDS011;10317;47.254;11.314;2023-04-03T09:44:55;5.57;;;5.07;;
20318;SDS011;10317;47.254;11.314;2023-04-03T09:47:27;9.07;;;5.35;;
20318;SDS011;10317;47.254;11.314;2023-04-03T09:52:50;5.47;;;4.97;;
20318;SDS011;10317;47.254;11.314;2023-04-03T09:55:20;6.28;;;5.68;;
20318;SDS011;10317;47.254;11.314;2023-04-03T09:57:51;6.22;;;5.07;;
20318;SDS011;10317;47.254;11.314;2023-04-03T10:00:43;8.55;;;5.38;;
20318;SDS011;10317;47.254;11.314;2023-04-03T10:03:24;5.95;;;5.45;;
20318;SDS011;10317;47.254;11.314;2023-04-03T10:06:00;6.35;;;5.70;;
20318;SDS011;10317;47.254;11.314;2023-04-03T10:08:31;6.28;;;5.72;;
20318;SDS011;10317;47.254;11.314;2023-04-03T10:11:10;7.75;;;5.63;;
20318;SDS011;10317;47.254;11.314;2023-04-03T10:13:40;5.75;;;5.28;;
20318;SDS011;10317;47.254;11.314;2023-04-03T10:16:17;6.55;;;5.95;;
20318;SDS011;10317;47.254;11.314;2023-04-03T10:19:48;5.88;;;5.28;;
20318;SDS011;10317;47.254;11.314;2023-04-03T10:21:57;5.47;;;4.97;;
20318;SDS011;10317;47.254;11.314;2023-04-03T10:24:44;5.57;;;5.07;;
20318;SDS011;10317;47.254;11.314;2023-04-03T10:30:33;7.00;;;4.95;;
20318;SDS011;10317;47.254;11.314;2023-04-03T10:36:06;5.95;;;5.05;;
20318;SDS011;10317;47.254;11.314;2023-04-03T10:41:50;5.30;;;4.80;;
20318;SDS011;10317;47.254;11.314;2023-04-03T10:47:12;5.60;;;5.18;;
20318;SDS011;10317;47.254;11.314;2023-04-03T10:49:51;5.18;;;4.68;;
20318;SDS011;10317;47.254;11.314;2023-04-03T10:57:52;6.13;;;5.53;;
20318;SDS011;10317;47.254;11.314;2023-04-03T11:00:24;4.90;;;4.43;;
20318;SDS011;10317;47.254;11.314;2023-04-03T11:03:06;4.63;;;4.20;;
20318;SDS011;10317;47.254;11.314;2023-04-03T11:05:54;3.92;;;3.60;;
20318;SDS011;10317;47.254;11.314;2023-04-03T11:08:26;4.15;;;3.85;;
20318;SDS011;10317;47.254;11.314;2023-04-03T11:11:09;6.30;;;4.65;;
20318;SDS011;10317;47.254;11.314;2023-04-03T11:13:43;4.60;;;4.20;;
20318;SDS011;10317;47.254;11.314;2023-04-03T11:16:16;4.63;;;4.22;;
20318;SDS011;10317;47.254;11.314;2023-04-03T11:18:54;6.75;;;4.38;;
20318;SDS011;10317;47.254;11.314;2023-04-03T11:21:29;5.28;;;4.38;;
20318;SDS011;10317;47.254;11.314;2023-04-03T11:24:00;4.93;;;4.47;;
20318;SDS011;10317;47.254;11.314;2023-04-03T11:26:31;6.15;;;5.28;;
20318;SDS011;10317;47.254;11.314;2023-04-03T11:29:05;5.35;;;4.85;;
20318;SDS011;10317;47.254;11.314;2023-04-03T11:34:27;5.35;;;4.15;;
20318;SDS011;10317;47.254;11.314;2023-04-03T11:37:10;4.95;;;4.55;;
20318;SDS011;10317;47.254;11.314;2023-04-03T11:39:56;4.32;;;4.03;;
20318;SDS011;10317;47.254;11.314;2023-04-03T11:42:36;4.90;;;3.60;;
20318;SDS011;10317;47.254;11.314;2023-04-03T11:45:17;3.65;;;3.38;;
20318;SDS011;10317;47.254;11.314;2023-04-03T11:47:52;4.00;;;3.70;;
20318;SDS011;10317;47.254;11.314;2023-04-03T12:13:39;3.83;;;3.63;;
20318;SDS011;10317;47.254;11.314;2023-04-03T12:16:22;4.35;;;3.97;;
20318;SDS011;10317;47.254;11.314;2023-04-03T12:24:23;3.67;;;3.47;;
20318;SDS011;10317;47.254;11.314;2023-04-03T12:37:51;3.50;;;3.30;;
20318;SDS011;10317;47.254;11.314;2023-04-03T12:43:42;4.65;;;4.25;;
20318;SDS011;10317;47.254;11.314;2023-04-03T12:46:38;3.70;;;3.50;;
20318;SDS011;10317;47.254;11.314;2023-04-03T12:49:51;3.45;;;3.25;;
20318;SDS011;10317;47.254;11.314;2023-04-03T12:52:03;3.65;;;3.45;;
20318;SDS011;10317;47.254;11.314;2023-04-03T12:54:38;3.63;;;3.42;;
20318;SDS011;10317;47.254;11.314;2023-04-03T12:57:09;3.80;;;3.50;;
20318;SDS011;10317;47.254;11.314;2023-04-03T12:59:45;4.68;;;3.40;;
20318;SDS011;10317;47.254;11.314;2023-04-03T13:04:48;3.72;;;3.30;;
20318;SDS011;10317;47.254;11.314;2023-04-03T13:07:25;3.47;;;3.28;;
20318;SDS011;10317;47.254;11.314;2023-04-03T13:09:58;4.28;;;3.38;;
20318;SDS011;10317;47.254;11.314;2023-04-03T13:12:54;3.95;;;3.45;;
20318;SDS011;10317;47.254;11.314;2023-04-03T13:15:24;3.28;;;3.08;;
20318;SDS011;10317;47.254;11.314;2023-04-03T13:17:50;2.45;;;2.33;;
20318;SDS011;10317;47.254;11.314;2023-04-03T13:20:28;3.70;;;3.08;;
20318;SDS011;10317;47.254;11.314;2023-04-03T13:23:07;3.65;;;3.38;;
20318;SDS011;10317;47.254;11.314;2023-04-03T13:25:39;5.13;;;3.33;;
20318;SDS011;10317;47.254;11.314;2023-04-03T13:28:12;3.88;;;3.65;;
20318;SDS011;10317;47.254;11.314;2023-04-03T13:30:41;3.75;;;3.38;;
20318;SDS011;10317;47.254;11.314;2023-04-03T13:33:33;3.42;;;3.17;;
20318;SDS011;10317;47.254;11.314;2023-04-03T13:38:35;3.13;;;3.00;;
20318;SDS011;10317;47.254;11.314;2023-04-03T13:41:05;3.38;;;3.17;;
20318;SDS011;10317;47.254;11.314;2023-04-03T13:43:49;3.30;;;3.00;;
20318;SDS011;10317;47.254;11.314;2023-04-03T13:48:44;3.47;;;3.13;;
20318;SDS011;10317;47.254;11.314;2023-04-03T13:53:55;2.97;;;2.78;;
20318;SDS011;10317;47.254;11.314;2023-04-03T13:56:25;7.03;;;3.00;;
20318;SDS011;10317;47.254;11.314;2023-04-03T13:59:01;3.03;;;2.83;;
20318;SDS011;10317;47.254;11.314;2023-04-03T14:01:47;3.10;;;2.90;;
20318;SDS011;10317;47.254;11.314;2023-04-03T14:04:20;3.92;;;3.25;;
20318;SDS011;10317;47.254;11.314;2023-04-03T14:06:48;2.97;;;2.78;;
20318;SDS011;10317;47.254;11.314;2023-04-03T14:09:15;3.55;;;3.25;;
20318;SDS011;10317;47.254;11.314;2023-04-03T14:11:42;3.65;;;3.35;;
20318;SDS011;10317;47.254;11.314;2023-04-03T14:14:18;4.07;;;3.65;;
20318;SDS011;10317;47.254;11.314;2023-04-03T14:16:48;3.20;;;3.00;;
20318;SDS011;10317;47.254;11.314;2023-04-03T14:19:22;3.33;;;3.10;;
20318;SDS011;10317;47.254;11.314;2023-04-03T14:21:51;5.30;;;3.40;;
20318;SDS011;10317;47.254;11.314;2023-04-03T14:24:17;5.13;;;3.55;;
20318;SDS011;10317;47.254;11.314;2023-04-03T14:26:44;3.63;;;3.30;;
20318;SDS011;10317;47.254;11.314;2023-04-03T14:29:11;4.05;;;3.75;;
20318;SDS011;10317;47.254;11.314;2023-04-03T14:31:38;3.25;;;3.10;;
20318;SDS011;10317;47.254;11.314;2023-04-03T14:34:06;3.55;;;3.25;;
20318;SDS011;10317;47.254;11.314;2023-04-03T14:36:31;3.47;;;3.17;;
20318;SDS011;10317;47.254;11.314;2023-04-03T14:38:58;3.85;;;3.30;;
20318;SDS011;10317;47.254;11.314;2023-04-03T14:41:25;4.45;;;3.50;;
20318;SDS011;10317;47.254;11.314;2023-04-03T14:43:51;3.65;;;3.42;;
20318;SDS011;10317;47.254;11.314;2023-04-03T14:49:03;3.03;;;2.92;;
20318;SDS011;10317;47.254;11.314;2023-04-03T14:51:37;3.40;;;3.10;;
20318;SDS011;10317;47.254;11.314;2023-04-03T14:54:03;3.13;;;2.97;;
20318;SDS011;10317;47.254;11.314;2023-04-03T14:56:31;2.67;;;2.58;;
20318;SDS011;10317;47.254;11.314;2023-04-03T14:58:58;3.67;;;3.40;;
20318;SDS011;10317;47.254;11.314;2023-04-03T15:01:25;3.10;;;2.90;;
20318;SDS011;10317;47.254;11.314;2023-04-03T15:03:53;3.38;;;3.15;;
20318;SDS011;10317;47.254;11.314;2023-04-03T15:06:18;3.33;;;3.03;;
20318;SDS011;10317;47.254;11.314;2023-04-03T15:08:46;3.35;;;3.05;;
20318;SDS011;10317;47.254;11.314;2023-04-03T15:11:12;2.72;;;2.60;;
20318;SDS011;10317;47.254;11.314;2023-04-03T15:13:39;3.70;;;3.13;;
20318;SDS011;10317;47.254;11.314;2023-04-03T15:16:10;3.00;;;2.80;;
20318;SDS011;10317;47.254;11.314;2023-04-03T15:18:40;3.10;;;2.92;;
20318;SDS011;10317;47.254;11.314;2023-04-03T15:21:06;3.20;;;3.00;;
20318;SDS011;10317;47.254;11.314;2023-04-03T15:23:31;3.47;;;3.22;;
20318;SDS011;10317;47.254;11.314;2023-04-03T15:25:57;3.10;;;2.90;;
20318;SDS011;10317;47.254;11.314;2023-04-03T15:28:28;4.57;;;3.35;;
20318;SDS011;10317;47.254;11.314;2023-04-03T15:31:02;4.07;;;3.20;;
20318;SDS011;10317;47.254;11.314;2023-04-03T15:33:29;2.88;;;2.60;;
20318;SDS011;10317;47.254;11.314;2023-04-03T15:35:56;3.45;;;3.15;;
20318;SDS011;10317;47.254;11.314;2023-04-03T15:38:22;3.50;;;3.20;;
20318;SDS011;10317;47.254;11.314;2023-04-03T15:40:47;3.22;;;3.03;;
20318;SDS011;10317;47.254;11.314;2023-04-03T15:43:13;3.60;;;3.30;;
20318;SDS011;10317;47.254;11.314;2023-04-03T15:45:40;3.72;;;3.42;;
20318;SDS011;10317;47.254;11.314;2023-04-03T15:48:06;4.35;;;3.78;;
20318;SDS011;10317;47.254;11.314;2023-04-03T15:50:33;3.88;;;3.05;;
20318;SDS011;10317;47.254;11.314;2023-04-03T15:53:00;4.57;;;4.18;;
20318;SDS011;10317;47.254;11.314;2023-04-03T15:55:27;3.38;;;3.17;;
20318;SDS011;10317;47.254;11.314;2023-04-03T15:57:54;2.92;;;2.80;;
20318;SDS011;10317;47.254;11.314;2023-04-03T16:00:21;4.38;;;2.88;;
20318;SDS011;10317;47.254;11.314;2023-04-03T16:02:47;3.20;;;3.00;;
20318;SDS011;10317;47.254;11.314;2023-04-03T16:05:16;3.58;;;2.90;;
20318;SDS011;10317;47.254;11.314;2023-04-03T16:07:42;3.00;;;2.80;;
20318;SDS011;10317;47.254;11.314;2023-04-03T16:10:09;3.92;;;3.63;;
20318;SDS011;10317;47.254;11.314;2023-04-03T16:12:35;3.88;;;3.58;;
20318;SDS011;10317;47.254;11.314;2023-04-03T16:15:01;3.40;;;3.10;;
20318;SDS011;10317;47.254;11.314;2023-04-03T16:17:27;3.28;;;3.08;;
20318;SDS011;10317;47.254;11.314;2023-04-03T16:19:56;4.63;;;3.75;;
20318;SDS011;10317;47.254;11.314;2023-04-03T16:22:23;3.97;;;3.55;;